Time;durP1;ratioP1;P1;durP2;ratioP2;P2;SDS_P1;SDS_P2;PMS_P1;PMS_P2;Temp;Humidity;BMP_temperature;BMP_pressure;BME280_temperature;BME280_humidity;BME280_pressure;Samples;Min_cycle;Max_cycle;Signal;HPM_P1;HPM_P2
2022/07/29 00:01:22;;;;;;;5.20;4.60;;;26.00;91.00;;;;;;5000726;28;20428;-79
2022/07/29 00:03:50;;;;;;;7.43;4.50;;;26.00;91.00;;;;;;5004945;28;20504;-80
2022/07/29 00:06:17;;;;;;;6.20;4.43;;;26.00;91.10;;;;;;5003574;28;20418;-81
2022/07/29 00:08:49;;;;;;;8.27;4.33;;;26.00;91.40;;;;;;5004148;28;20409;-80
2022/07/29 00:11:16;;;;;;;6.97;5.17;;;26.00;91.30;;;;;;5000993;28;20471;-80
2022/07/29 00:13:49;;;;;;;8.10;5.40;;;26.00;91.40;;;;;;5003595;28;20417;-80
2022/07/29 00:16:16;;;;;;;5.80;4.90;;;26.00;91.40;;;;;;5003545;28;20433;-81
2022/07/29 00:18:58;;;;;;;5.67;5.00;;;26.00;91.30;;;;;;4999810;28;20985;-79
2022/07/29 00:21:25;;;;;;;14.93;5.17;;;26.00;91.10;;;;;;4990013;28;20444;-80
2022/07/29 00:23:56;;;;;;;5.70;4.40;;;26.00;91.20;;;;;;4975000;28;20915;-79
2022/07/29 00:26:22;;;;;;;6.60;4.63;;;26.00;91.20;;;;;;4975092;28;20604;-81
2022/07/29 00:29:20;;;;;;;9.30;4.63;;;26.00;91.30;;;;;;4982533;28;20962;-80
2022/07/29 00:32:01;;;;;;;6.67;4.77;;;25.90;91.30;;;;;;4995667;28;20495;-79
2022/07/29 00:37:23;;;;;;;5.10;4.63;;;25.90;91.30;;;;;;4985272;28;20480;-79
2022/07/29 00:39:54;;;;;;;8.77;5.03;;;25.90;91.20;;;;;;4975375;28;20480;-80
2022/07/29 00:42:54;;;;;;;5.30;4.80;;;25.90;91.40;;;;;;4975141;28;20871;-79
2022/07/29 00:45:24;;;;;;;9.97;5.07;;;25.90;91.60;;;;;;4980355;28;20445;-79
2022/07/29 00:48:04;;;;;;;6.07;4.70;;;25.90;91.70;;;;;;4990310;28;21040;-79
2022/07/29 00:50:49;;;;;;;4.93;4.40;;;25.80;91.70;;;;;;4994736;28;20426;-79
2022/07/29 00:53:19;;;;;;;9.43;5.13;;;25.80;91.80;;;;;;4987311;28;20791;-79
2022/07/29 00:55:53;;;;;;;6.60;4.67;;;25.80;91.70;;;;;;4972970;28;20497;-79
2022/07/29 00:58:28;;;;;;;5.20;4.67;;;25.80;91.80;;;;;;4988268;28;20817;-81
2022/07/29 01:00:59;;;;;;;4.87;4.47;;;25.80;91.90;;;;;;4992314;28;20780;-81
2022/07/29 01:03:37;;;;;;;6.87;4.80;;;25.80;91.90;;;;;;4990059;28;20458;-80
2022/07/29 01:06:04;;;;;;;6.23;4.40;;;25.70;91.90;;;;;;4981507;28;21246;-81
2022/07/29 01:08:36;;;;;;;5.33;4.70;;;25.70;92.00;;;;;;4989042;28;20436;-79
2022/07/29 01:11:03;;;;;;;7.60;4.50;;;25.70;91.80;;;;;;4992128;28;20429;-80
2022/07/29 01:13:35;;;;;;;4.93;4.53;;;25.70;91.80;;;;;;4995746;28;20426;-80
2022/07/29 01:16:13;;;;;;;5.43;4.90;;;25.70;91.70;;;;;;4992141;28;20439;-80
2022/07/29 01:18:46;;;;;;;4.67;4.27;;;25.70;91.70;;;;;;4980829;28;20472;-81
2022/07/29 01:21:31;;;;;;;4.93;4.20;;;25.70;91.80;;;;;;5002341;28;20777;-79
2022/07/29 01:24:34;;;;;;;4.93;4.23;;;25.70;91.80;;;;;;4995402;28;20487;-80
2022/07/29 01:27:19;;;;;;;6.00;4.83;;;25.70;91.80;;;;;;5000972;28;20562;-79
2022/07/29 01:30:00;;;;;;;5.17;4.67;;;25.60;91.80;;;;;;4999895;28;20512;-79
2022/07/29 01:32:53;;;;;;;4.77;4.37;;;25.60;91.80;;;;;;5000785;28;20476;-80
2022/07/29 01:35:28;;;;;;;6.10;4.83;;;25.60;91.80;;;;;;4994723;28;20436;-80
2022/07/29 01:38:02;;;;;;;4.87;4.30;;;25.60;91.80;;;;;;4993698;28;20787;-80
2022/07/29 01:41:02;;;;;;;4.83;4.37;;;25.50;91.80;;;;;;4994005;28;20447;-80
2022/07/29 01:43:52;;;;;;;5.37;4.87;;;25.50;91.80;;;;;;4989311;28;20449;-80
2022/07/29 01:46:27;;;;;;;5.43;4.73;;;25.50;91.90;;;;;;4994058;28;20560;-80
2022/07/29 01:48:58;;;;;;;5.57;4.70;;;25.40;91.90;;;;;;4994029;28;20558;-80
2022/07/29 01:51:51;;;;;;;8.77;4.80;;;25.40;91.80;;;;;;4992878;28;20971;-80
2022/07/29 01:54:47;;;;;;;5.53;5.00;;;25.40;91.70;;;;;;4993014;28;20425;-79
2022/07/29 01:57:23;;;;;;;6.97;5.37;;;25.40;91.70;;;;;;4992265;28;20512;-80
2022/07/29 01:59:54;;;;;;;5.20;4.70;;;25.30;91.70;;;;;;4994439;28;20464;-81
2022/07/29 02:02:31;;;;;;;5.33;4.83;;;25.30;91.70;;;;;;4992278;28;20881;-79
2022/07/29 02:04:58;;;;;;;5.70;5.20;;;25.30;91.80;;;;;;4992482;28;20428;-79
2022/07/29 02:07:33;;;;;;;7.07;5.07;;;25.30;92.00;;;;;;4993624;28;20444;-81
2022/07/29 02:10:05;;;;;;;8.50;5.40;;;25.30;91.90;;;;;;4993407;28;20421;-80
2022/07/29 02:12:43;;;;;;;5.07;4.67;;;25.30;91.80;;;;;;4992768;28;20518;-81
2022/07/29 02:15:11;;;;;;;5.50;5.00;;;25.40;91.80;;;;;;4991275;28;20425;-81
2022/07/29 02:17:59;;;;;;;6.80;5.20;;;25.30;92.10;;;;;;4991038;28;20523;-81
2022/07/29 02:20:49;;;;;;;10.70;5.30;;;25.30;91.80;;;;;;4975309;28;20441;-79
2022/07/29 02:23:23;;;;;;;5.67;4.33;;;25.30;91.80;;;;;;4985695;28;20480;-81
2022/07/29 02:26:01;;;;;;;7.90;5.23;;;25.30;92.00;;;;;;4974615;28;20473;-80
2022/07/29 02:28:29;;;;;;;4.70;4.30;;;25.30;92.00;;;;;;4989087;28;20441;-81
2022/07/29 02:31:01;;;;;;;5.43;4.93;;;25.30;92.00;;;;;;4992786;28;20417;-80
2022/07/29 02:33:42;;;;;;;6.67;5.03;;;25.30;92.00;;;;;;4986650;28;20481;-80
2022/07/29 02:36:10;;;;;;;6.03;5.13;;;25.30;92.10;;;;;;4988623;28;20443;-79
2022/07/29 02:39:01;;;;;;;5.73;5.10;;;25.30;92.20;;;;;;4992307;28;20476;-80
2022/07/29 02:41:50;;;;;;;5.50;5.00;;;25.30;92.20;;;;;;4981213;28;20445;-79
2022/07/29 02:44:29;;;;;;;6.03;4.70;;;25.30;92.00;;;;;;4978587;28;20449;-81
2022/07/29 02:47:01;;;;;;;5.07;4.57;;;25.30;92.10;;;;;;4978780;28;20461;-81
2022/07/29 02:49:48;;;;;;;5.93;4.97;;;25.20;92.20;;;;;;4978635;28;20441;-80
2022/07/29 02:52:23;;;;;;;5.67;4.70;;;25.30;92.30;;;;;;4986413;28;20464;-80
2022/07/29 02:54:55;;;;;;;5.23;4.70;;;25.20;92.30;;;;;;4986338;28;20835;-80
2022/07/29 02:57:43;;;;;;;5.30;4.80;;;25.20;92.30;;;;;;4992529;28;21066;-79
2022/07/29 03:00:12;;;;;;;6.20;5.60;;;25.20;92.30;;;;;;4987226;28;20502;-80
2022/07/29 03:02:48;;;;;;;6.87;5.70;;;25.20;92.20;;;;;;4983051;28;20469;-80
2022/07/29 03:05:24;;;;;;;8.30;5.53;;;25.20;92.20;;;;;;4981594;28;20515;-81
2022/07/29 03:08:05;;;;;;;8.00;5.20;;;25.10;92.30;;;;;;4986963;28;20460;-80
2022/07/29 03:10:32;;;;;;;5.50;4.87;;;25.10;92.40;;;;;;4976991;28;20436;-80
2022/07/29 03:13:05;;;;;;;7.17;5.10;;;25.10;92.40;;;;;;4981100;28;20935;-80
2022/07/29 03:15:32;;;;;;;5.60;5.10;;;25.10;92.50;;;;;;4987509;28;20444;-79
2022/07/29 03:18:03;;;;;;;8.97;5.80;;;25.10;92.50;;;;;;4991397;28;20471;-80
2022/07/29 03:20:36;;;;;;;6.20;5.60;;;25.10;92.50;;;;;;5008519;28;20948;-80
2022/07/29 03:23:31;;;;;;;7.07;5.60;;;25.10;92.90;;;;;;4994172;28;20547;-80
2022/07/29 03:26:02;;;;;;;7.80;5.80;;;25.10;92.60;;;;;;4996129;28;20430;-80
2022/07/29 03:28:36;;;;;;;6.20;5.23;;;25.10;92.60;;;;;;4993070;28;20444;-79
2022/07/29 03:31:07;;;;;;;6.23;5.63;;;25.10;92.70;;;;;;5006196;28;20433;-81
2022/07/29 03:34:03;;;;;;;6.77;5.60;;;25.00;92.70;;;;;;5007098;28;20472;-80
2022/07/29 03:37:23;;;;;;;6.57;5.90;;;25.10;92.70;;;;;;5004409;28;20976;-79
2022/07/29 03:39:58;;;;;;;8.43;5.53;;;25.10;92.70;;;;;;5002618;28;20555;-80
2022/07/29 03:42:35;;;;;;;8.57;6.40;;;25.00;92.70;;;;;;5009050;28;20959;-79
2022/07/29 03:45:07;;;;;;;8.20;6.20;;;25.00;92.70;;;;;;5005349;28;20436;-78
2022/07/29 03:47:37;;;;;;;6.10;5.53;;;25.00;92.70;;;;;;5007284;28;20443;-81
2022/07/29 03:50:11;;;;;;;5.93;4.90;;;25.00;92.80;;;;;;5003557;28;20423;-80
2022/07/29 03:52:50;;;;;;;8.47;5.77;;;25.00;92.90;;;;;;5000756;28;20555;-80
2022/07/29 03:55:21;;;;;;;11.33;6.40;;;25.00;93.00;;;;;;5003878;28;20824;-80
2022/07/29 03:57:51;;;;;;;5.93;5.27;;;25.00;92.90;;;;;;5004725;28;20890;-81
2022/07/29 04:00:19;;;;;;;6.90;6.27;;;25.00;92.90;;;;;;5001127;28;20545;-80
2022/07/29 04:02:55;;;;;;;9.60;5.63;;;24.90;93.00;;;;;;5001602;28;20538;-80
2022/07/29 04:05:22;;;;;;;7.30;5.40;;;24.90;93.00;;;;;;5006855;28;20443;-80
2022/07/29 04:07:54;;;;;;;11.30;6.20;;;24.90;93.00;;;;;;4998290;28;20500;-81
2022/07/29 04:10:24;;;;;;;5.87;5.27;;;24.90;93.10;;;;;;5000666;28;20465;-81
2022/07/29 04:13:23;;;;;;;7.10;5.60;;;25.00;93.20;;;;;;5010094;28;20448;-80
2022/07/29 04:15:52;;;;;;;8.63;6.47;;;25.00;93.20;;;;;;5014831;28;20428;-80
2022/07/29 04:18:34;;;;;;;7.50;6.20;;;25.00;93.20;;;;;;4984425;28;20962;-80
2022/07/29 04:23:49;;;;;;;5.50;5.07;;;24.90;93.30;;;;;;5014797;23;20475;-80
2022/07/29 04:26:15;;;;;;;6.40;5.30;;;24.90;93.30;;;;;;4999586;28;20437;-78
2022/07/29 04:28:42;;;;;;;10.63;6.37;;;25.00;93.30;;;;;;4996391;28;20568;-80
2022/07/29 04:31:11;;;;;;;6.40;5.17;;;25.00;93.40;;;;;;4995282;28;20524;-81
2022/07/29 04:40:40;;;;;;;8.60;5.87;;;25.00;93.70;;;;;;4994786;28;20483;-81
2022/07/29 04:43:19;;;;;;;6.17;5.67;;;25.00;93.80;;;;;;5014265;28;20947;-79
2022/07/29 04:45:45;;;;;;;8.10;5.67;;;24.90;93.80;;;;;;5014247;28;20465;-81
2022/07/29 04:48:24;;;;;;;8.03;5.20;;;24.90;93.80;;;;;;5013698;28;20526;-80
2022/07/29 04:51:06;;;;;;;8.93;6.67;;;24.90;93.90;;;;;;5012663;28;20543;-79
2022/07/29 04:53:38;;;;;;;8.00;5.90;;;24.90;94.00;;;;;;5011315;28;20459;-80
2022/07/29 04:56:08;;;;;;;6.30;5.33;;;24.90;94.10;;;;;;5011438;28;20551;-80
2022/07/29 04:58:48;;;;;;;10.23;6.23;;;24.90;94.20;;;;;;5005394;28;20475;-79
2022/07/29 05:01:45;;;;;;;11.00;6.03;;;24.90;94.20;;;;;;5002298;28;20467;-80
2022/07/29 05:04:19;;;;;;;6.60;5.97;;;24.90;94.10;;;;;;4997945;28;20486;-80
2022/07/29 05:07:02;;;;;;;7.00;6.30;;;24.90;94.20;;;;;;5012624;28;20466;-80
2022/07/29 05:09:40;;;;;;;7.87;6.87;;;24.90;94.30;;;;;;5003182;28;20840;-81
2022/07/29 05:12:07;;;;;;;9.47;6.60;;;24.90;94.30;;;;;;5004303;28;20513;-80
2022/07/29 05:14:44;;;;;;;10.03;6.63;;;24.90;94.50;;;;;;5015595;28;20445;-81
2022/07/29 05:17:10;;;;;;;7.77;5.83;;;24.90;94.60;;;;;;5016672;23;20498;-82
2022/07/29 05:19:36;;;;;;;6.53;5.60;;;24.90;94.60;;;;;;4965382;28;20977;-80
2022/07/29 05:22:02;;;;;;;10.90;6.63;;;24.90;94.40;;;;;;4978183;28;20202;-80
2022/07/29 05:24:35;;;;;;;8.10;6.53;;;24.90;94.50;;;;;;4985164;28;20215;-79
2022/07/29 05:27:27;;;;;;;6.93;6.23;;;24.90;94.60;;;;;;4981887;28;20675;-80
2022/07/29 05:30:05;;;;;;;14.57;6.20;;;24.90;94.70;;;;;;4981812;28;20523;-80
2022/07/29 05:32:31;;;;;;;10.90;7.57;;;25.00;94.80;;;;;;4985918;28;20474;-80
2022/07/29 05:35:02;;;;;;;13.43;6.63;;;25.00;94.70;;;;;;4972584;28;20452;-80
2022/07/29 05:37:33;;;;;;;8.00;6.50;;;25.10;95.20;;;;;;4984830;28;20474;-80
2022/07/29 05:40:06;;;;;;;12.80;7.80;;;25.20;95.20;;;;;;4977227;28;20575;-79
2022/07/29 05:42:34;;;;;;;7.40;6.60;;;25.20;95.40;;;;;;4986957;28;20480;-79
2022/07/29 05:45:01;;;;;;;7.40;6.70;;;25.30;95.80;;;;;;4972956;28;20433;-79
2022/07/29 05:47:35;;;;;;;9.50;6.50;;;25.30;95.80;;;;;;4982920;28;20474;-81
2022/07/29 05:50:08;;;;;;;10.90;7.73;;;25.40;96.20;;;;;;4984363;28;20857;-81
2022/07/29 05:52:42;;;;;;;16.17;7.37;;;25.40;96.40;;;;;;4992424;28;20480;-79
2022/07/29 05:55:11;;;;;;;10.80;8.23;;;25.50;96.70;;;;;;4975377;28;20446;-79
2022/07/29 05:57:59;;;;;;;7.77;7.00;;;25.60;97.10;;;;;;4986899;28;20808;-80
2022/07/29 06:00:47;;;;;;;8.90;7.67;;;25.60;97.10;;;;;;4971924;28;21078;-80
2022/07/29 06:03:15;;;;;;;9.37;7.60;;;25.70;96.80;;;;;;4979768;28;20470;-82
2022/07/29 06:05:48;;;;;;;7.60;6.70;;;25.80;97.50;;;;;;4987010;28;20508;-80
2022/07/29 06:08:52;;;;;;;8.73;7.10;;;25.90;97.50;;;;;;4985693;28;21113;-81
2022/07/29 06:11:25;;;;;;;9.87;8.10;;;26.00;97.20;;;;;;4968732;28;20485;-81
2022/07/29 06:13:51;;;;;;;9.87;7.97;;;26.00;97.30;;;;;;4993470;28;20505;-80
2022/07/29 06:16:29;;;;;;;9.73;7.57;;;26.10;97.50;;;;;;4984838;28;20441;-80
2022/07/29 06:19:14;;;;;;;9.43;7.93;;;26.20;97.40;;;;;;4956090;28;20490;-83
2022/07/29 06:22:14;;;;;;;8.03;6.93;;;26.30;97.60;;;;;;4953738;28;21010;-80
2022/07/29 06:25:30;;;;;;;11.53;7.80;;;26.30;97.60;;;;;;4969249;28;20442;-81
2022/07/29 06:31:12;;;;;;;9.70;7.50;;;26.50;97.80;;;;;;4961826;28;20473;-81
2022/07/29 06:33:45;;;;;;;8.40;7.60;;;26.60;97.90;;;;;;4949890;28;20907;-81
2022/07/29 06:36:39;;;;;;;9.60;7.57;;;26.60;97.90;;;;;;4951516;28;20519;-82
2022/07/29 06:39:44;;;;;;;10.53;8.53;;;26.70;97.90;;;;;;4958899;28;20489;-81
2022/07/29 06:42:17;;;;;;;11.20;8.07;;;26.80;98.10;;;;;;4968598;28;20549;-83
2022/07/29 06:44:48;;;;;;;9.27;8.00;;;26.80;98.00;;;;;;4957203;28;20431;-79
2022/07/29 06:47:36;;;;;;;10.40;8.60;;;26.80;98.00;;;;;;4957619;28;20471;-79
2022/07/29 06:50:35;;;;;;;8.80;7.90;;;26.90;98.20;;;;;;4955210;28;20446;-81
2022/07/29 06:53:05;;;;;;;9.17;8.27;;;26.90;98.20;;;;;;4959188;28;20945;-79
2022/07/29 06:58:48;;;;;;;11.03;9.30;;;26.90;98.20;;;;;;5395259;23;21007;-84
2022/07/29 07:01:58;;;;;;;8.20;7.40;;;27.00;98.50;;;;;;4976957;28;20433;-84
2022/07/29 07:04:29;;;;;;;8.50;7.43;;;27.10;98.10;;;;;;4958256;28;20237;-82
2022/07/29 07:06:55;;;;;;;8.67;7.73;;;27.10;98.80;;;;;;4957422;28;20529;-81
2022/07/29 07:12:35;;;;;;;7.87;7.07;;;27.20;98.30;;;;;;4964369;28;20843;-83
2022/07/29 07:15:02;;;;;;;10.67;8.07;;;27.30;98.20;;;;;;4961565;28;20526;-83
2022/07/29 07:17:28;;;;;;;9.33;8.37;;;27.30;98.00;;;;;;4948447;28;20838;-83
2022/07/29 07:19:58;;;;;;;8.77;7.40;;;27.30;98.20;;;;;;4959464;28;20568;-82
2022/07/29 07:22:28;;;;;;;9.03;8.00;;;27.30;98.20;;;;;;4955303;28;20468;-82
2022/07/29 07:24:54;;;;;;;10.20;8.60;;;27.40;98.30;;;;;;4951017;28;20994;-82
2022/07/29 07:28:01;;;;;;;9.00;8.13;;;27.40;98.40;;;;;;4964266;28;20462;-79
2022/07/29 07:30:28;;;;;;;10.60;9.50;;;27.40;98.30;;;;;;4948280;28;20444;-83
2022/07/29 07:33:04;;;;;;;14.20;9.77;;;27.40;98.60;;;;;;4944432;28;20469;-80
2022/07/29 07:35:39;;;;;;;13.30;9.83;;;27.40;98.40;;;;;;4966932;28;20484;-80
2022/07/29 07:38:20;;;;;;;9.13;8.27;;;27.40;99.00;;;;;;4970773;28;20620;-79
2022/07/29 07:40:46;;;;;;;9.43;8.50;;;27.50;99.10;;;;;;4964877;28;20972;-79
2022/07/29 07:43:17;;;;;;;9.73;8.47;;;27.60;98.90;;;;;;4968592;28;21318;-83
2022/07/29 07:45:57;;;;;;;8.87;7.80;;;27.70;98.60;;;;;;4972150;28;20431;-83
2022/07/29 07:48:28;;;;;;;8.40;7.60;;;27.90;98.70;;;;;;4958703;28;20470;-78
2022/07/29 07:50:54;;;;;;;8.37;7.50;;;28.00;98.30;;;;;;4970850;28;20457;-82
2022/07/29 07:53:29;;;;;;;8.50;7.70;;;28.00;97.70;;;;;;4961939;28;20464;-81
2022/07/29 07:55:56;;;;;;;8.07;7.27;;;28.10;97.60;;;;;;4966758;28;20174;-81
2022/07/29 07:58:22;;;;;;;8.33;6.30;;;28.10;97.60;;;;;;4961229;28;20491;-83
2022/07/29 08:00:54;;;;;;;7.10;6.40;;;28.20;97.30;;;;;;4964205;28;20447;-80
2022/07/29 08:03:32;;;;;;;10.80;6.87;;;28.20;97.20;;;;;;4966645;28;20460;-82
2022/07/29 08:06:07;;;;;;;8.33;6.93;;;28.30;97.10;;;;;;4971960;28;20448;-79
2022/07/29 08:08:37;;;;;;;7.70;6.57;;;28.30;97.10;;;;;;4970815;28;20467;-79
2022/07/29 08:11:03;;;;;;;8.50;6.33;;;28.30;97.00;;;;;;4969978;28;20445;-83
2022/07/29 08:14:04;;;;;;;8.83;7.43;;;28.40;96.70;;;;;;4985449;28;20560;-80
2022/07/29 08:16:30;;;;;;;7.70;6.70;;;28.40;96.80;;;;;;4976375;28;20453;-83
2022/07/29 08:19:17;;;;;;;7.60;6.90;;;28.50;96.50;;;;;;4970551;28;20471;-83
2022/07/29 08:21:44;;;;;;;7.47;6.83;;;28.50;96.50;;;;;;4967636;28;20199;-81
2022/07/29 08:27:00;;;;;;;7.70;7.00;;;28.60;96.80;;;;;;4973320;28;20484;-84
2022/07/29 08:29:27;;;;;;;8.40;6.70;;;28.70;96.20;;;;;;4968549;28;20444;-82
2022/07/29 08:32:08;;;;;;;7.30;6.60;;;28.80;96.30;;;;;;4970475;28;20453;-80
2022/07/29 08:34:35;;;;;;;7.27;6.57;;;28.90;96.50;;;;;;4972108;28;20479;-83
2022/07/29 08:37:02;;;;;;;9.63;7.27;;;29.00;96.50;;;;;;4967675;28;20473;-80
2022/07/29 08:39:30;;;;;;;7.93;7.20;;;29.10;96.00;;;;;;4959980;28;20466;-81
2022/07/29 08:42:06;;;;;;;9.13;8.23;;;29.20;96.00;;;;;;4978760;28;20858;-81
2022/07/29 08:44:33;;;;;;;7.47;6.77;;;29.20;95.80;;;;;;4956886;28;20319;-83
2022/07/29 08:46:59;;;;;;;8.23;7.33;;;29.30;96.00;;;;;;4966433;28;20474;-82
2022/07/29 08:49:27;;;;;;;8.80;6.77;;;29.40;95.50;;;;;;4965297;28;20478;-82
2022/07/29 08:52:19;;;;;;;8.63;6.13;;;29.40;95.50;;;;;;4957239;28;20450;-80
2022/07/29 08:54:51;;;;;;;7.97;6.10;;;29.50;95.50;;;;;;4963937;28;20947;-80
2022/07/29 08:57:36;;;;;;;8.93;6.30;;;29.50;95.00;;;;;;4970794;28;20529;-80
2022/07/29 09:00:05;;;;;;;8.37;6.93;;;29.60;95.30;;;;;;4961723;28;20484;-82
2022/07/29 09:02:43;;;;;;;7.77;7.07;;;29.70;95.50;;;;;;4969689;28;20478;-83
2022/07/29 09:05:32;;;;;;;7.63;6.80;;;29.80;95.40;;;;;;4971597;28;20541;-80
2022/07/29 09:08:08;;;;;;;7.90;6.13;;;29.90;95.10;;;;;;4972101;28;20489;-84
2022/07/29 09:10:38;;;;;;;8.20;7.40;;;30.00;95.10;;;;;;4964806;28;20519;-80
2022/07/29 09:13:10;;;;;;;8.40;6.77;;;29.90;94.80;;;;;;4963906;28;20963;-79
2022/07/29 09:15:36;;;;;;;8.40;6.43;;;29.90;94.70;;;;;;4983379;28;20475;-80
2022/07/29 09:18:37;;;;;;;7.90;7.10;;;29.90;94.60;;;;;;4965329;28;20503;-77
2022/07/29 09:24:25;;;;;;;8.30;7.13;;;30.00;94.10;;;;;;4970301;28;20580;-80
2022/07/29 09:26:53;;;;;;;7.17;6.20;;;30.00;93.90;;;;;;4986291;28;20834;-81
2022/07/29 09:29:24;;;;;;;10.60;6.50;;;30.00;93.90;;;;;;4970243;28;20841;-82
2022/07/29 09:32:00;;;;;;;6.93;6.20;;;30.00;93.80;;;;;;4967946;28;20496;-80
2022/07/29 09:34:31;;;;;;;7.30;5.77;;;29.90;93.50;;;;;;4970802;28;20523;-85
2022/07/29 09:37:09;;;;;;;7.23;6.47;;;30.00;93.50;;;;;;4967628;28;20826;-78
2022/07/29 09:39:47;;;;;;;7.20;6.50;;;30.00;93.30;;;;;;4969313;28;20487;-80
2022/07/29 09:42:28;;;;;;;6.67;5.97;;;30.00;93.50;;;;;;4966364;28;20467;-79
2022/07/29 09:45:12;;;;;;;6.70;6.10;;;30.00;93.00;;;;;;4967726;28;20458;-83
2022/07/29 09:47:45;;;;;;;6.83;6.13;;;30.10;92.80;;;;;;4961387;28;20460;-81
2022/07/29 09:50:23;;;;;;;6.13;5.63;;;30.00;92.80;;;;;;4977359;28;20998;-80
2022/07/29 09:52:55;;;;;;;7.77;7.07;;;30.20;93.40;;;;;;4971692;28;20555;-84
2022/07/29 09:55:25;;;;;;;6.70;6.10;;;30.30;93.20;;;;;;4958124;28;20441;-82
2022/07/29 10:01:53;;;;;;;7.13;6.40;;;30.60;93.60;;;;;;4964642;28;21008;-79
2022/07/29 10:04:36;;;;;;;6.97;6.27;;;30.80;92.90;;;;;;4967000;28;21024;-81
2022/07/29 10:07:11;;;;;;;7.60;6.90;;;30.90;92.60;;;;;;4964507;28;20472;-81
2022/07/29 10:09:37;;;;;;;7.47;6.57;;;31.00;92.30;;;;;;4984499;28;20498;-82
2022/07/29 10:12:16;;;;;;;7.70;7.00;;;31.10;91.30;;;;;;4962295;28;20768;-79
2022/07/29 10:14:44;;;;;;;7.40;6.70;;;31.20;90.90;;;;;;4969639;28;20193;-82
2022/07/29 10:17:19;;;;;;;6.77;6.13;;;31.20;90.90;;;;;;4967168;28;21151;-83
2022/07/29 10:23:00;;;;;;;7.20;6.60;;;31.40;90.50;;;;;;4959605;28;20463;-81
2022/07/29 10:25:29;;;;;;;7.00;6.30;;;31.50;90.50;;;;;;4963852;28;20807;-83
2022/07/29 10:27:58;;;;;;;7.23;6.53;;;31.50;90.90;;;;;;4967268;28;21010;-83
2022/07/29 10:30:33;;;;;;;7.60;6.90;;;31.60;90.40;;;;;;4965631;28;20435;-83
2022/07/29 10:33:30;;;;;;;9.10;6.60;;;31.60;90.20;;;;;;4966045;28;20528;-81
2022/07/29 10:36:13;;;;;;;7.70;7.00;;;31.70;90.20;;;;;;4961719;28;20486;-83
2022/07/29 10:39:05;;;;;;;7.53;6.73;;;31.70;90.00;;;;;;4963348;28;20614;-80
2022/07/29 10:41:54;;;;;;;7.17;6.47;;;31.70;90.00;;;;;;4982389;28;20466;-83
2022/07/29 10:44:33;;;;;;;8.50;6.47;;;31.80;89.40;;;;;;4967370;28;20453;-81
2022/07/29 10:47:03;;;;;;;7.03;6.30;;;31.80;88.90;;;;;;4966596;28;20466;-84
2022/07/29 10:49:52;;;;;;;6.80;6.20;;;31.80;89.00;;;;;;4960515;28;20985;-81
2022/07/29 10:52:24;;;;;;;6.97;6.03;;;31.90;89.40;;;;;;4959701;28;20459;-80
2022/07/29 10:55:00;;;;;;;6.77;6.17;;;31.80;89.40;;;;;;4973647;28;20580;-80
2022/07/29 10:57:39;;;;;;;8.80;6.40;;;31.90;89.00;;;;;;4956639;28;20521;-83
2022/07/29 11:00:08;;;;;;;7.43;6.83;;;31.90;88.70;;;;;;4953060;28;21069;-82
2022/07/29 11:02:44;;;;;;;6.30;5.33;;;32.00;88.50;;;;;;4975352;28;20454;-83
2022/07/29 11:05:18;;;;;;;6.80;6.20;;;32.10;88.70;;;;;;4957160;28;21052;-81
2022/07/29 11:08:12;;;;;;;7.03;6.03;;;32.10;88.40;;;;;;4954653;28;20517;-82
2022/07/29 11:10:40;;;;;;;6.83;6.23;;;32.10;88.00;;;;;;4987375;28;20442;-83
2022/07/29 11:13:10;;;;;;;5.80;5.30;;;32.20;89.00;;;;;;4963162;28;21011;-82
2022/07/29 11:15:59;;;;;;;6.67;6.00;;;32.30;88.30;;;;;;4963329;28;20438;-84
2022/07/29 11:18:29;;;;;;;8.17;6.73;;;32.30;88.30;;;;;;4967459;28;20470;-81
2022/07/29 11:20:55;;;;;;;6.50;5.90;;;32.30;88.00;;;;;;4968148;28;20885;-81
2022/07/29 11:23:38;;;;;;;7.00;6.37;;;32.30;87.60;;;;;;4963281;28;20469;-83
2022/07/29 11:26:13;;;;;;;6.67;6.00;;;32.30;88.40;;;;;;4964233;28;20212;-78
2022/07/29 11:28:58;;;;;;;8.20;6.30;;;32.20;87.90;;;;;;4966624;28;20461;-82
2022/07/29 11:31:35;;;;;;;7.03;6.43;;;32.10;88.00;;;;;;4958953;28;20805;-83
2022/07/29 11:34:22;;;;;;;11.53;6.40;;;32.20;87.90;;;;;;4962678;28;20445;-78
2022/07/29 11:37:11;;;;;;;7.73;5.40;;;32.20;87.90;;;;;;4967889;28;20489;-82
2022/07/29 11:40:04;;;;;;;6.77;6.20;;;32.20;88.30;;;;;;4980804;28;20474;-83
2022/07/29 11:42:36;;;;;;;7.73;6.17;;;32.30;88.40;;;;;;4957238;28;20479;-80
2022/07/29 11:45:07;;;;;;;6.20;5.70;;;32.30;87.90;;;;;;4965429;28;20895;-78
2022/07/29 11:47:48;;;;;;;7.37;6.60;;;32.40;87.00;;;;;;4969661;28;20982;-83
2022/07/29 11:50:37;;;;;;;8.30;5.97;;;32.30;84.90;;;;;;4973649;28;20430;-84
2022/07/29 11:53:10;;;;;;;6.30;5.80;;;32.40;87.50;;;;;;4965572;28;20518;-85
2022/07/29 11:55:47;;;;;;;6.50;5.80;;;32.50;86.50;;;;;;4968382;28;20430;-81
2022/07/29 11:58:17;;;;;;;7.17;6.50;;;32.50;86.40;;;;;;4963484;28;20505;-83
2022/07/29 12:00:53;;;;;;;6.23;5.63;;;32.50;87.00;;;;;;4968821;28;20994;-82
2022/07/29 12:03:30;;;;;;;6.80;6.10;;;32.60;86.20;;;;;;4964646;28;20661;-85
2022/07/29 12:06:00;;;;;;;6.63;6.00;;;32.70;85.70;;;;;;4985170;28;20793;-84
2022/07/29 12:08:39;;;;;;;9.60;6.20;;;32.70;85.20;;;;;;4970168;28;21065;-82
2022/07/29 12:11:20;;;;;;;6.00;5.40;;;32.70;85.20;;;;;;4957730;28;20450;-83
2022/07/29 12:14:02;;;;;;;6.80;6.20;;;32.80;84.30;;;;;;4958423;28;20456;-85
2022/07/29 12:16:42;;;;;;;9.10;8.30;;;32.80;84.30;;;;;;4965784;28;20516;-82
2022/07/29 12:19:18;;;;;;;6.57;5.97;;;32.80;84.00;;;;;;4967741;28;20478;-80
2022/07/29 12:21:58;;;;;;;5.47;4.97;;;32.90;83.90;;;;;;4968005;28;20470;-84
2022/07/29 12:24:47;;;;;;;6.70;6.10;;;32.90;84.10;;;;;;4969488;28;20492;-80
2022/07/29 12:31:06;;;;;;;5.10;4.70;;;32.90;84.10;;;;;;4967907;28;21022;-82
2022/07/29 12:33:41;;;;;;;6.67;5.80;;;32.90;84.10;;;;;;4964015;28;20466;-82
2022/07/29 12:36:09;;;;;;;6.30;5.70;;;32.90;84.00;;;;;;4968132;28;20481;-85
2022/07/29 12:38:38;;;;;;;6.10;5.60;;;32.90;83.80;;;;;;4962578;28;20482;-81
2022/07/29 12:41:07;;;;;;;6.60;5.90;;;32.90;83.70;;;;;;4958503;28;20416;-84
2022/07/29 12:44:05;;;;;;;10.20;4.90;;;33.00;83.80;;;;;;4970498;28;20481;-80
2022/07/29 12:46:48;;;;;;;6.40;5.83;;;33.00;84.00;;;;;;4969816;28;20446;-83
2022/07/29 12:53:22;;;;;;;7.13;6.43;;;33.10;83.50;;;;;;4964345;28;20501;-83
2022/07/29 12:59:14;;;;;;;5.80;5.20;;;33.10;84.40;;;;;;5336095;23;20589;-83
2022/07/29 13:01:40;;;;;;;6.27;5.77;;;33.10;83.60;;;;;;5004232;28;20449;-84
2022/07/29 13:04:06;;;;;;;5.43;4.93;;;33.20;84.00;;;;;;5007943;28;20428;-81
2022/07/29 13:06:38;;;;;;;6.00;5.40;;;33.20;84.00;;;;;;5009132;28;20432;-84
2022/07/29 13:09:26;;;;;;;5.17;4.70;;;33.20;83.60;;;;;;5009213;28;21010;-84
2022/07/29 13:11:55;;;;;;;7.23;6.47;;;33.30;83.20;;;;;;5008904;28;20468;-81
2022/07/29 13:14:39;;;;;;;6.33;5.20;;;33.30;83.60;;;;;;5010236;28;20436;-83
2022/07/29 13:17:09;;;;;;;5.87;5.37;;;33.40;83.70;;;;;;5005203;28;20479;-80
2022/07/29 13:19:42;;;;;;;5.97;5.33;;;33.40;83.30;;;;;;5008164;28;20558;-81
2022/07/29 13:22:29;;;;;;;7.33;5.80;;;33.40;83.20;;;;;;5007269;28;20468;-85
2022/07/29 13:25:03;;;;;;;5.77;5.17;;;33.50;83.40;;;;;;5008258;28;20416;-81
2022/07/29 13:27:36;;;;;;;8.03;7.43;;;33.60;83.10;;;;;;5006404;28;20480;-82
2022/07/29 13:30:04;;;;;;;7.13;6.43;;;33.60;82.50;;;;;;5008251;28;20447;-83
2022/07/29 13:32:37;;;;;;;6.90;6.30;;;33.60;82.50;;;;;;5010566;28;21030;-84
2022/07/29 13:35:06;;;;;;;6.17;5.60;;;33.70;81.60;;;;;;5009097;28;20875;-83
2022/07/29 13:37:38;;;;;;;9.43;5.83;;;33.60;81.20;;;;;;5006828;28;20562;-84
2022/07/29 13:40:13;;;;;;;6.17;5.40;;;33.50;81.90;;;;;;5004771;28;20514;-84
2022/07/29 13:42:45;;;;;;;5.70;5.20;;;33.60;82.30;;;;;;5001193;28;20996;-81
2022/07/29 13:45:12;;;;;;;9.50;5.97;;;33.60;82.70;;;;;;5006292;28;20444;-83
2022/07/29 13:47:40;;;;;;;7.50;6.03;;;33.60;82.60;;;;;;5008755;28;20822;-83
2022/07/29 13:50:07;;;;;;;6.37;5.77;;;33.60;81.10;;;;;;5012053;28;20409;-80
2022/07/29 13:52:34;;;;;;;6.03;5.43;;;33.60;81.40;;;;;;5010922;28;20539;-84
2022/07/29 13:55:16;;;;;;;6.20;5.60;;;33.60;82.30;;;;;;5011344;28;20397;-79
2022/07/29 13:57:47;;;;;;;6.00;5.50;;;33.60;82.00;;;;;;5008625;28;20484;-80
2022/07/29 14:00:24;;;;;;;10.27;6.53;;;33.70;82.20;;;;;;5010915;28;20533;-83
2022/07/29 14:03:11;;;;;;;6.70;6.10;;;33.60;82.00;;;;;;5013756;28;20480;-81
2022/07/29 14:06:07;;;;;;;6.00;5.50;;;33.70;82.30;;;;;;5012793;28;20435;-78
2022/07/29 14:08:46;;;;;;;9.10;6.17;;;33.60;81.60;;;;;;5026003;28;20830;-78
2022/07/29 14:11:20;;;;;;;6.53;6.00;;;33.60;81.10;;;;;;5009846;28;20432;-84
2022/07/29 14:13:48;;;;;;;6.97;5.63;;;33.60;81.00;;;;;;5011870;28;20766;-84
2022/07/29 14:16:24;;;;;;;9.43;6.53;;;33.50;81.50;;;;;;5011507;28;20432;-78
2022/07/29 14:18:58;;;;;;;7.70;5.73;;;33.50;81.10;;;;;;5008342;28;20468;-82